Time;durP1;ratioP1;P1;durP2;ratioP2;P2;SDS_P1;SDS_P2;PMS_P1;PMS_P2;Temp;Humidity;BMP_temperature;BMP_pressure;BME280_temperature;BME280_humidity;BME280_pressure;Samples;Min_cycle;Max_cycle;Signal;HPM_P1;HPM_P2
2022/04/04 00:00:12;;;;;;;12.57;8.83;;;-2.40;99.90;;;;;;4932852;29;20197;-85
2022/04/04 00:02:38;;;;;;;15.25;8.65;;;-2.40;99.90;;;;;;4934432;29;20655;-83
2022/04/04 00:05:05;;;;;;;9.70;7.50;;;-2.40;99.90;;;;;;4935986;29;20180;-85
2022/04/04 00:07:30;;;;;;;12.95;7.45;;;-2.50;99.90;;;;;;4930358;29;20221;-82
2022/04/04 00:09:56;;;;;;;12.53;7.10;;;-2.50;99.90;;;;;;4931393;29;20296;-85
2022/04/04 00:12:22;;;;;;;8.67;5.93;;;-2.50;99.90;;;;;;4930694;29;20214;-83
2022/04/04 00:14:49;;;;;;;11.00;7.33;;;-2.50;99.90;;;;;;4931244;29;20192;-84
2022/04/04 00:17:15;;;;;;;12.65;5.95;;;-2.60;99.90;;;;;;4935347;29;20232;-84
2022/04/04 00:19:41;;;;;;;10.13;6.97;;;-2.70;99.90;;;;;;4933986;29;20238;-86
2022/04/04 00:22:06;;;;;;;9.10;6.32;;;-2.70;99.90;;;;;;4930150;29;23520;-85
2022/04/04 00:24:32;;;;;;;11.83;7.47;;;-2.70;99.90;;;;;;4932198;29;20185;-84
2022/04/04 00:26:58;;;;;;;9.00;5.83;;;-2.90;99.90;;;;;;4931557;29;20821;-85
2022/04/04 00:29:25;;;;;;;13.63;8.40;;;-2.90;99.90;;;;;;4946614;28;20966;-84
2022/04/04 00:31:51;;;;;;;11.50;7.55;;;-3.00;99.90;;;;;;4935440;29;20881;-83
2022/04/04 00:34:17;;;;;;;11.95;8.48;;;-2.90;99.90;;;;;;4944206;29;20192;-84
2022/04/04 00:36:43;;;;;;;13.07;8.47;;;-2.80;99.90;;;;;;4946384;29;20197;-83
2022/04/04 00:39:10;;;;;;;11.15;8.23;;;-2.80;99.90;;;;;;4929950;29;20198;-83
2022/04/04 00:41:36;;;;;;;15.55;8.32;;;;;;;;;;4931083;29;20208;-84
2022/04/04 00:44:02;;;;;;;10.18;7.38;;;-2.70;99.90;;;;;;4928009;29;20181;-85
2022/04/04 00:46:28;;;;;;;17.07;11.03;;;-2.70;99.90;;;;;;4935713;28;20203;-85
2022/04/04 00:48:53;;;;;;;27.50;14.93;;;-2.70;99.90;;;;;;4934868;29;20530;-85
2022/04/04 00:51:19;;;;;;;18.40;12.93;;;-2.50;99.90;;;;;;4928903;29;20245;-83
2022/04/04 00:53:45;;;;;;;20.93;13.43;;;;;;;;;;4932196;29;20229;-83
2022/04/04 00:56:12;;;;;;;17.55;13.43;;;-2.50;99.90;;;;;;4925910;29;20200;-84
2022/04/04 00:58:38;;;;;;;15.52;8.88;;;-2.50;99.90;;;;;;4930410;29;20217;-83
2022/04/04 01:01:04;;;;;;;14.95;10.45;;;-2.50;99.90;;;;;;4920372;29;20259;-85
2022/04/04 01:03:30;;;;;;;17.58;10.05;;;-2.50;99.90;;;;;;4930792;29;20189;-84
2022/04/04 01:05:58;;;;;;;17.60;9.00;;;-2.50;99.90;;;;;;4933319;29;20243;-82
2022/04/04 01:08:24;;;;;;;15.85;9.80;;;-2.40;99.90;;;;;;4928932;29;20215;-81
2022/04/04 01:10:50;;;;;;;15.55;8.88;;;-2.30;99.90;;;;;;4946486;28;20291;-83
2022/04/04 01:13:16;;;;;;;13.95;9.32;;;-2.40;99.90;;;;;;4933956;29;20185;-81
2022/04/04 01:15:42;;;;;;;13.18;10.20;;;-2.20;99.90;;;;;;4968011;28;20236;-81
2022/04/04 01:18:09;;;;;;;18.60;9.30;;;-2.20;99.90;;;;;;4951454;28;20219;-81
2022/04/04 01:20:37;;;;;;;16.15;7.95;;;-2.30;99.90;;;;;;4937988;28;20461;-83
2022/04/04 01:23:05;;;;;;;14.25;8.20;;;-2.20;99.90;;;;;;4933209;29;20183;-83
2022/04/04 01:25:33;;;;;;;13.60;9.30;;;-2.20;99.90;;;;;;4944742;28;20260;-85
2022/04/04 01:28:00;;;;;;;12.57;7.90;;;-2.20;99.90;;;;;;4932929;29;20189;-81
2022/04/04 01:30:27;;;;;;;11.50;8.15;;;-2.20;99.90;;;;;;4935748;29;20278;-86
2022/04/04 01:32:53;;;;;;;13.80;9.07;;;-2.30;99.90;;;;;;4933776;29;20177;-82
2022/04/04 01:35:20;;;;;;;14.15;9.57;;;-2.30;99.90;;;;;;4923891;29;20189;-81
2022/04/04 01:37:46;;;;;;;12.95;8.27;;;-2.30;99.90;;;;;;4933089;28;20677;-84
2022/04/04 01:40:13;;;;;;;14.77;8.00;;;-2.20;99.90;;;;;;4927639;29;20260;-83
2022/04/04 01:42:39;;;;;;;11.43;8.20;;;-2.20;99.90;;;;;;4931881;29;20189;-84
2022/04/04 01:45:07;;;;;;;11.15;8.43;;;-2.30;99.90;;;;;;4928540;29;20208;-83
2022/04/04 01:47:33;;;;;;;16.38;8.68;;;-2.30;99.90;;;;;;4944728;28;20280;-84
2022/04/04 01:49:59;;;;;;;13.93;9.23;;;-2.40;99.90;;;;;;4930359;29;20209;-81
2022/04/04 01:52:24;;;;;;;14.17;8.47;;;-2.30;99.90;;;;;;4930105;29;20403;-82
2022/04/04 01:54:53;;;;;;;11.53;7.60;;;-2.20;99.90;;;;;;4943090;28;20535;-82
2022/04/04 01:57:18;;;;;;;10.25;8.05;;;-2.20;99.90;;;;;;4987408;23;20228;-86
2022/04/04 01:59:44;;;;;;;15.23;7.70;;;-2.20;99.90;;;;;;4955995;28;20236;-86
2022/04/04 02:02:10;;;;;;;13.97;9.90;;;-2.00;99.90;;;;;;4954192;28;20287;-86
2022/04/04 02:04:36;;;;;;;11.97;9.30;;;-2.00;99.90;;;;;;4956332;28;20211;-86
2022/04/04 02:07:02;;;;;;;37.97;18.45;;;-2.10;99.90;;;;;;4951578;28;20216;-88
2022/04/04 02:09:28;;;;;;;149.02;50.67;;;-2.10;99.90;;;;;;4951463;28;20736;-88
2022/04/04 02:11:53;;;;;;;39.90;18.17;;;-2.10;99.90;;;;;;4967710;28;20184;-88
2022/04/04 02:14:19;;;;;;;36.63;15.57;;;-2.00;99.90;;;;;;4948719;28;20184;-89
2022/04/04 02:16:45;;;;;;;14.53;7.93;;;-2.00;99.90;;;;;;4947842;28;20211;-88
2022/04/04 02:19:10;;;;;;;10.13;7.73;;;-2.10;99.90;;;;;;4942741;28;20188;-87
2022/04/04 02:21:37;;;;;;;11.10;7.80;;;-2.10;99.90;;;;;;4937769;28;20192;-87
2022/04/04 02:24:03;;;;;;;16.13;8.63;;;-2.20;99.90;;;;;;4940035;28;20185;-87
2022/04/04 02:26:29;;;;;;;14.48;9.73;;;-2.20;99.90;;;;;;4941919;28;20310;-87
2022/04/04 02:28:54;;;;;;;11.23;7.57;;;-2.20;99.90;;;;;;4945645;28;20189;-87
2022/04/04 02:31:20;;;;;;;15.57;8.93;;;-2.10;99.90;;;;;;4953249;28;20705;-88
2022/04/04 02:33:45;;;;;;;14.30;8.43;;;-2.20;99.90;;;;;;4946422;28;20184;-88
2022/04/04 02:36:11;;;;;;;11.10;7.47;;;-2.20;99.90;;;;;;4948633;28;20235;-88
2022/04/04 02:38:37;;;;;;;12.43;7.77;;;-2.10;99.90;;;;;;4963597;28;20212;-86
2022/04/04 02:41:02;;;;;;;11.60;8.03;;;-2.20;99.90;;;;;;4965939;28;20327;-88
2022/04/04 02:43:28;;;;;;;10.30;7.50;;;-2.20;99.90;;;;;;4953673;28;20950;-86
2022/04/04 02:45:54;;;;;;;11.53;7.73;;;-2.20;99.90;;;;;;4951411;28;20217;-86
2022/04/04 02:48:20;;;;;;;14.07;8.00;;;-2.10;99.90;;;;;;4946739;28;20200;-88
2022/04/04 02:50:46;;;;;;;15.38;8.18;;;-2.10;99.90;;;;;;4946919;28;20194;-87
2022/04/04 02:53:13;;;;;;;9.68;7.28;;;-2.10;99.90;;;;;;4960998;28;20279;-87
2022/04/04 02:58:22;;;;;;;13.07;8.73;;;-1.80;99.90;;;;;;4947832;28;20211;-86
2022/04/04 03:00:48;;;;;;;14.27;8.50;;;-1.90;99.90;;;;;;4945015;28;20185;-86
2022/04/04 03:03:14;;;;;;;23.23;10.43;;;-1.90;99.90;;;;;;4949681;28;20191;-88
2022/04/04 03:05:40;;;;;;;20.73;9.40;;;-1.90;99.90;;;;;;4946641;28;20207;-88
2022/04/04 03:08:06;;;;;;;14.50;10.20;;;-2.00;99.90;;;;;;4944735;28;20538;-88
2022/04/04 03:10:33;;;;;;;15.73;9.10;;;-1.90;99.90;;;;;;4941902;28;20450;-87
2022/04/04 03:13:04;;;;;;;13.50;8.73;;;-1.90;99.90;;;;;;4958609;28;20220;-87
2022/04/04 03:15:31;;;;;;;12.77;9.38;;;-2.00;99.90;;;;;;4961297;28;20215;-86
2022/04/04 03:17:57;;;;;;;14.88;9.68;;;-1.90;99.90;;;;;;4949593;28;20217;-88
2022/04/04 03:20:25;;;;;;;13.50;9.70;;;-1.90;99.90;;;;;;4968939;28;20628;-86
2022/04/04 03:22:56;;;;;;;13.95;9.25;;;-1.90;99.90;;;;;;4975812;28;20713;-87
2022/04/04 03:25:22;;;;;;;13.63;8.98;;;-2.00;99.90;;;;;;4956435;28;20208;-87
2022/04/04 03:27:49;;;;;;;15.25;9.70;;;-2.10;99.90;;;;;;4945318;28;20203;-88
2022/04/04 03:30:24;;;;;;;12.27;7.82;;;-2.10;99.90;;;;;;4958228;28;20191;-88
2022/04/04 03:32:49;;;;;;;17.98;9.40;;;-2.10;99.90;;;;;;4959792;28;20202;-89
2022/04/04 03:35:16;;;;;;;12.27;9.17;;;-1.90;99.90;;;;;;4952250;28;20185;-88
2022/04/04 03:37:44;;;;;;;14.27;9.73;;;-1.90;99.90;;;;;;4965024;28;20765;-87
2022/04/04 03:40:13;;;;;;;15.38;9.55;;;-1.80;99.90;;;;;;4943033;28;20265;-88
2022/04/04 03:42:40;;;;;;;13.20;9.25;;;-1.80;99.90;;;;;;4951335;28;20180;-88
2022/04/04 03:45:06;;;;;;;17.17;10.70;;;-2.00;99.90;;;;;;4964657;28;20244;-88
2022/04/04 03:47:32;;;;;;;17.60;11.17;;;-2.00;99.90;;;;;;4950373;28;20288;-88
2022/04/04 03:49:59;;;;;;;13.23;9.90;;;-2.00;99.90;;;;;;4964550;28;20440;-87
2022/04/04 03:52:25;;;;;;;14.90;11.55;;;-2.10;99.90;;;;;;4959408;28;20284;-86
2022/04/04 03:54:51;;;;;;;14.27;8.75;;;-2.20;99.90;;;;;;4970644;28;20192;-86
2022/04/04 03:57:17;;;;;;;20.35;11.10;;;-2.10;99.90;;;;;;4943030;28;20217;-86
2022/04/04 03:59:43;;;;;;;15.00;11.27;;;-2.20;99.90;;;;;;4947706;28;20761;-87
2022/04/04 04:02:09;;;;;;;16.45;9.93;;;-2.20;99.90;;;;;;4949419;28;20713;-85
2022/04/04 04:04:34;;;;;;;14.50;9.93;;;-2.20;99.90;;;;;;4949003;28;20316;-87
2022/04/04 04:07:00;;;;;;;11.67;7.43;;;-2.10;99.90;;;;;;4945051;28;20283;-87
2022/04/04 04:09:25;;;;;;;14.50;9.30;;;-2.10;99.90;;;;;;4942602;28;20211;-86
2022/04/04 04:11:51;;;;;;;18.03;11.00;;;-2.10;99.90;;;;;;4939564;28;20188;-85
2022/04/04 04:14:17;;;;;;;13.40;9.10;;;-2.00;99.90;;;;;;4954686;28;20180;-85
2022/04/04 04:16:42;;;;;;;12.03;9.30;;;-2.00;99.90;;;;;;4939410;28;20204;-85
2022/04/04 04:20:19;;;;;;;12.23;8.10;;;-2.00;99.90;;;;;;4956441;28;20204;-86
2022/04/04 04:21:53;;;;;;;9.45;6.32;;;-2.00;99.90;;;;;;4943007;28;20208;-86
2022/04/04 04:24:19;;;;;;;20.23;8.10;;;-1.90;99.90;;;;;;4944502;28;20212;-86
2022/04/04 04:26:45;;;;;;;12.40;7.67;;;-1.90;99.90;;;;;;4948178;28;20714;-86
2022/04/04 04:29:10;;;;;;;12.40;9.60;;;-1.70;99.90;;;;;;4943051;28;20215;-85
2022/04/04 04:31:35;;;;;;;10.20;7.20;;;-1.80;99.90;;;;;;4943922;28;20188;-85
2022/04/04 04:34:03;;;;;;;12.63;8.03;;;-1.70;99.90;;;;;;4945534;28;20201;-87
2022/04/04 04:36:28;;;;;;;10.73;7.25;;;-1.70;99.90;;;;;;4943439;28;20201;-85
2022/04/04 04:38:54;;;;;;;9.03;6.13;;;-1.80;99.90;;;;;;4943413;28;20216;-86
2022/04/04 04:41:20;;;;;;;11.43;7.57;;;-1.80;99.90;;;;;;4935534;28;20524;-85
2022/04/04 04:43:45;;;;;;;18.20;8.60;;;-1.80;99.90;;;;;;4941453;28;20212;-86
2022/04/04 04:46:11;;;;;;;13.90;8.70;;;;;;;;;;4959549;28;20192;-86
2022/04/04 04:48:37;;;;;;;9.80;7.40;;;-2.00;99.90;;;;;;4955036;28;21032;-86
2022/04/04 04:51:02;;;;;;;12.60;7.97;;;-2.10;99.90;;;;;;4937023;28;20448;-86
2022/04/04 04:53:28;;;;;;;13.37;8.97;;;-2.10;99.90;;;;;;4938156;28;20199;-86
2022/04/04 04:55:53;;;;;;;15.23;11.33;;;-2.10;99.90;;;;;;4951535;28;20741;-85
2022/04/04 04:58:19;;;;;;;9.90;7.70;;;-2.10;99.90;;;;;;4931429;28;20649;-86
2022/04/04 05:00:44;;;;;;;10.53;7.57;;;-2.10;99.90;;;;;;4942131;28;20199;-85
2022/04/04 05:03:25;;;;;;;10.07;6.37;;;-2.10;99.90;;;;;;4951371;28;22368;-87
2022/04/04 05:05:51;;;;;;;9.73;6.50;;;-2.10;99.90;;;;;;4951923;28;20196;-86
2022/04/04 05:08:17;;;;;;;9.52;7.05;;;-2.00;99.90;;;;;;4949618;28;20217;-86
2022/04/04 05:10:43;;;;;;;15.77;8.03;;;-2.00;99.90;;;;;;4936319;28;21123;-87
2022/04/04 05:13:08;;;;;;;14.10;9.73;;;-2.00;99.90;;;;;;4940888;28;20435;-87
2022/04/04 05:15:34;;;;;;;11.27;7.43;;;-2.10;99.90;;;;;;4945256;28;20291;-87
2022/04/04 05:18:00;;;;;;;14.57;8.00;;;-2.20;99.90;;;;;;4955073;28;20204;-88
2022/04/04 05:20:25;;;;;;;13.07;8.87;;;;;;;;;;4941399;28;20177;-87
2022/04/04 05:22:51;;;;;;;12.65;8.43;;;-2.10;99.90;;;;;;4945603;28;20950;-88
2022/04/04 05:25:17;;;;;;;17.53;8.20;;;-1.70;99.90;;;;;;4937177;28;20195;-89
2022/04/04 05:27:43;;;;;;;14.67;9.37;;;-1.70;99.90;;;;;;4941039;28;20215;-88
2022/04/04 05:30:10;;;;;;;15.30;8.93;;;-0.80;99.90;;;;;;4956651;28;20195;-89
2022/04/04 05:32:36;;;;;;;11.20;8.48;;;0.40;99.90;;;;;;4942493;28;20843;-88
2022/04/04 05:35:05;;;;;;;12.65;9.65;;;2.90;99.90;;;;;;4951473;28;20236;-89
2022/04/04 05:37:31;;;;;;;12.20;9.80;;;2.90;99.90;;;;;;4963231;28;20299;-88
2022/04/04 05:39:57;;;;;;;13.93;10.40;;;3.70;99.90;;;;;;4948988;28;20228;-88
2022/04/04 05:42:22;;;;;;;13.60;8.70;;;5.00;99.90;;;;;;4946905;28;20465;-87
2022/04/04 05:44:48;;;;;;;13.63;9.20;;;5.90;99.90;;;;;;4954377;28;20195;-88
2022/04/04 05:47:17;;;;;;;11.53;8.53;;;6.40;99.90;;;;;;4947119;28;20199;-89
2022/04/04 05:49:43;;;;;;;9.35;8.23;;;8.00;99.90;;;;;;4944680;28;20198;-88
2022/04/04 05:52:10;;;;;;;11.68;8.60;;;9.90;99.90;;;;;;4944426;28;20184;-88
2022/04/04 05:54:53;;;;;;;12.40;8.02;;;11.50;99.90;;;;;;4946124;28;20283;-88
2022/04/04 05:57:23;;;;;;;13.32;8.95;;;12.80;99.90;;;;;;4965606;28;20216;-87
2022/04/04 05:59:49;;;;;;;12.98;8.68;;;14.40;95.50;;;;;;4951316;28;20185;-87
2022/04/04 06:02:16;;;;;;;11.70;9.35;;;15.70;92.10;;;;;;4964569;28;20265;-88
2022/04/04 06:04:41;;;;;;;10.60;8.80;;;17.10;84.00;;;;;;4952268;28;20260;-87
2022/04/04 06:07:07;;;;;;;16.57;11.10;;;18.10;75.00;;;;;;4951201;28;21373;-88
2022/04/04 06:09:32;;;;;;;8.93;6.13;;;18.80;67.10;;;;;;4947566;28;20187;-87
2022/04/04 06:11:58;;;;;;;13.03;10.10;;;18.70;54.70;;;;;;4948485;28;20205;-88
2022/04/04 06:14:23;;;;;;;15.50;13.37;;;18.70;54.00;;;;;;4946188;28;20273;-88
2022/04/04 06:16:49;;;;;;;7.83;6.47;;;19.20;53.70;;;;;;4947705;28;20212;-88
2022/04/04 06:19:14;;;;;;;11.50;8.60;;;18.40;46.30;;;;;;4942555;28;20652;-86
2022/04/04 06:21:40;;;;;;;10.10;7.80;;;17.90;48.50;;;;;;4944866;28;20260;-87
2022/04/04 06:24:06;;;;;;;8.40;6.10;;;16.60;47.00;;;;;;4943557;28;20176;-86
2022/04/04 06:26:31;;;;;;;11.83;9.33;;;14.80;46.60;;;;;;4935240;28;20230;-86
2022/04/04 06:28:57;;;;;;;9.37;6.50;;;14.10;51.50;;;;;;4956967;28;20440;-87
2022/04/04 06:31:23;;;;;;;8.03;6.10;;;14.40;49.40;;;;;;4937707;28;20191;-87
2022/04/04 06:33:48;;;;;;;8.97;7.80;;;13.90;48.30;;;;;;4943732;28;20196;-87
2022/04/04 06:36:14;;;;;;;9.57;5.97;;;13.90;50.40;;;;;;4942099;28;20240;-86
2022/04/04 06:38:40;;;;;;;7.27;5.97;;;13.90;48.70;;;;;;4942163;28;20212;-86
2022/04/04 06:41:05;;;;;;;10.87;7.40;;;13.10;49.50;;;;;;4940091;28;20356;-86
2022/04/04 06:43:31;;;;;;;6.90;5.00;;;12.00;52.30;;;;;;4944052;28;20181;-86
2022/04/04 06:45:56;;;;;;;8.83;6.67;;;12.70;51.90;;;;;;4943828;28;20208;-84
2022/04/04 06:48:23;;;;;;;10.07;6.97;;;13.70;52.70;;;;;;4939938;28;20548;-84
2022/04/04 06:50:49;;;;;;;10.02;7.63;;;15.30;52.20;;;;;;4942128;28;20745;-86
2022/04/04 06:53:15;;;;;;;10.47;8.00;;;15.60;49.80;;;;;;4943982;28;20211;-85
2022/04/04 06:55:42;;;;;;;9.90;7.50;;;15.40;51.40;;;;;;4961403;28;20926;-85
2022/04/04 06:58:07;;;;;;;6.77;5.60;;;16.50;50.90;;;;;;4946986;28;20582;-86
2022/04/04 07:00:35;;;;;;;10.40;6.93;;;14.20;46.30;;;;;;4941475;28;20575;-84
2022/04/04 07:03:01;;;;;;;8.57;5.93;;;14.40;50.20;;;;;;4941769;28;20184;-85
2022/04/04 07:05:27;;;;;;;5.83;4.60;;;13.90;49.70;;;;;;4941569;28;20247;-85
2022/04/04 07:07:53;;;;;;;9.18;6.88;;;11.20;46.50;;;;;;4960094;28;20446;-86
2022/04/04 07:10:20;;;;;;;8.02;4.85;;;10.00;53.40;;;;;;4943377;28;20514;-87
2022/04/04 07:12:45;;;;;;;7.93;4.88;;;8.30;54.90;;;;;;4948980;28;20636;-86
2022/04/04 07:15:12;;;;;;;8.20;5.83;;;8.80;54.40;;;;;;4949496;28;20193;-86
2022/04/04 07:17:39;;;;;;;8.55;4.78;;;8.70;54.90;;;;;;4961283;28;20227;-86
2022/04/04 07:20:06;;;;;;;6.65;5.30;;;8.10;55.30;;;;;;4965620;28;20180;-87
2022/04/04 07:22:37;;;;;;;6.75;4.50;;;8.80;56.00;;;;;;4946542;28;20180;-85
2022/04/04 07:25:04;;;;;;;4.65;4.10;;;8.30;54.90;;;;;;4946412;28;20339;-85
2022/04/04 07:27:30;;;;;;;5.88;4.72;;;8.30;55.40;;;;;;4945263;28;20176;-86
2022/04/04 07:29:56;;;;;;;6.10;4.60;;;9.80;57.60;;;;;;4945719;28;20220;-87
2022/04/04 07:32:21;;;;;;;9.00;5.47;;;9.50;53.90;;;;;;4949656;28;20219;-86
2022/04/04 07:34:47;;;;;;;4.20;3.70;;;9.60;55.70;;;;;;4941705;28;20451;-86
2022/04/04 07:37:12;;;;;;;8.67;5.33;;;9.80;56.40;;;;;;4946560;28;20204;-86
2022/04/04 07:39:39;;;;;;;5.70;5.10;;;11.40;56.30;;;;;;4943759;28;20298;-84
2022/04/04 07:42:06;;;;;;;5.50;4.50;;;11.60;50.70;;;;;;4943921;28;20673;-86
2022/04/04 07:44:31;;;;;;;5.47;4.30;;;11.70;52.40;;;;;;4940191;28;20706;-86
2022/04/04 07:46:57;;;;;;;5.73;4.87;;;10.60;53.60;;;;;;4944076;28;20216;-87
2022/04/04 07:49:23;;;;;;;4.33;3.70;;;10.80;53.00;;;;;;4939095;28;20193;-87
2022/04/04 07:51:48;;;;;;;5.70;4.83;;;12.10;52.20;;;;;;4958460;28;20451;-87
2022/04/04 07:54:14;;;;;;;6.67;5.50;;;12.50;52.30;;;;;;4955184;28;20713;-87
2022/04/04 07:59:19;;;;;;;12.80;5.18;;;13.00;51.80;;;;;;4938739;28;20487;-85
2022/04/04 08:01:45;;;;;;;5.07;4.57;;;14.90;51.70;;;;;;4938575;28;20206;-85
2022/04/04 08:04:12;;;;;;;8.53;5.10;;;16.20;49.70;;;;;;4943937;28;20196;-83
2022/04/04 08:06:37;;;;;;;6.07;4.77;;;15.60;47.90;;;;;;4950768;28;20197;-85
2022/04/04 08:09:03;;;;;;;7.40;5.63;;;12.90;47.20;;;;;;4968215;28;20439;-84
2022/04/04 08:11:29;;;;;;;6.93;5.33;;;13.40;50.90;;;;;;4947222;28;20196;-87
2022/04/04 08:13:54;;;;;;;7.80;6.00;;;12.90;50.00;;;;;;4942094;28;20606;-83
2022/04/04 08:16:22;;;;;;;7.83;5.90;;;12.20;51.40;;;;;;4957547;28;20195;-86
2022/04/04 08:18:48;;;;;;;11.55;6.30;;;12.10;50.50;;;;;;4956154;28;20219;-86
2022/04/04 08:21:15;;;;;;;6.70;4.85;;;12.10;52.50;;;;;;4946874;28;20188;-84
2022/04/04 08:23:42;;;;;;;7.63;4.40;;;13.30;52.90;;;;;;4938153;28;20183;-84
2022/04/04 08:26:08;;;;;;;7.90;5.50;;;9.90;52.30;;;;;;4941993;28;20184;-85
2022/04/04 08:28:33;;;;;;;6.93;5.10;;;9.90;57.20;;;;;;4959831;28;20211;-86
2022/04/04 08:30:59;;;;;;;7.00;5.20;;;10.50;58.40;;;;;;4941918;28;20214;-84
2022/04/04 08:33:25;;;;;;;8.77;5.93;;;10.90;57.10;;;;;;4954392;28;20184;-85
2022/04/04 08:35:53;;;;;;;9.53;5.97;;;12.60;57.10;;;;;;4939370;28;20211;-85
2022/04/04 08:38:20;;;;;;;8.85;5.72;;;11.90;54.30;;;;;;4955566;28;20204;-84
2022/04/04 08:40:48;;;;;;;6.85;4.88;;;12.60;54.00;;;;;;4953279;28;20188;-85
2022/04/04 08:43:16;;;;;;;7.22;6.05;;;12.30;54.40;;;;;;4957275;28;20952;-85
2022/04/04 08:45:42;;;;;;;6.43;5.40;;;12.50;54.00;;;;;;4961118;28;20188;-86
2022/04/04 08:48:12;;;;;;;5.45;4.93;;;12.60;53.30;;;;;;4957224;28;20242;-86
2022/04/04 08:50:39;;;;;;;8.23;4.65;;;11.30;53.10;;;;;;4955224;28;20183;-86
2022/04/04 08:53:05;;;;;;;5.28;4.75;;;10.20;53.00;;;;;;4948161;28;20195;-84
2022/04/04 08:55:31;;;;;;;12.55;5.68;;;10.20;52.70;;;;;;4948326;28;20215;-84
2022/04/04 08:57:57;;;;;;;12.37;5.10;;;10.80;56.80;;;;;;4940578;28;20650;-83
2022/04/04 09:00:24;;;;;;;7.57;6.38;;;11.40;54.80;;;;;;4942439;28;20443;-85
2022/04/04 09:03:02;;;;;;;5.35;4.22;;;11.20;53.90;;;;;;4971314;28;20306;-86
2022/04/04 09:05:32;;;;;;;8.27;5.00;;;11.40;53.60;;;;;;4958851;28;20183;-83
2022/04/04 09:08:06;;;;;;;7.28;5.38;;;10.20;54.90;;;;;;4957966;28;20207;-85
2022/04/04 09:10:37;;;;;;;8.70;5.07;;;11.30;54.80;;;;;;4934429;28;20183;-86
2022/04/04 09:13:12;;;;;;;4.60;4.10;;;11.80;53.80;;;;;;4943118;28;20246;-86
2022/04/04 09:15:50;;;;;;;5.93;5.30;;;11.70;52.90;;;;;;4956152;28;20266;-86
2022/04/04 09:18:16;;;;;;;8.65;5.30;;;11.60;52.70;;;;;;4986932;28;20245;-83
2022/04/04 09:20:49;;;;;;;5.70;4.67;;;12.10;51.60;;;;;;4945094;28;20191;-83
2022/04/04 09:23:20;;;;;;;6.90;5.18;;;11.20;51.30;;;;;;4956292;28;20191;-87
2022/04/04 09:25:45;;;;;;;4.95;4.43;;;10.30;51.80;;;;;;4958430;28;20580;-86
2022/04/04 09:28:19;;;;;;;7.00;5.50;;;9.40;51.80;;;;;;4964479;28;20207;-85
2022/04/04 09:31:08;;;;;;;4.20;3.70;;;8.70;55.30;;;;;;4960729;28;20207;-85
2022/04/04 09:33:39;;;;;;;8.32;4.75;;;9.30;55.60;;;;;;4955995;28;20191;-86
2022/04/04 09:36:06;;;;;;;5.90;5.22;;;10.60;55.60;;;;;;4941645;28;20203;-86
2022/04/04 09:38:35;;;;;;;5.78;3.95;;;9.10;52.70;;;;;;4959177;28;20274;-86
2022/04/04 09:41:17;;;;;;;6.75;4.30;;;9.50;56.00;;;;;;4948926;28;20199;-84
2022/04/04 09:43:57;;;;;;;9.02;5.15;;;9.00;54.60;;;;;;4947586;28;20180;-86
2022/04/04 09:46:27;;;;;;;5.15;4.63;;;10.00;58.30;;;;;;4981614;28;20191;-86
2022/04/04 09:49:02;;;;;;;10.30;5.80;;;12.00;54.60;;;;;;4950400;28;20697;-86
2022/04/04 09:51:36;;;;;;;5.55;4.60;;;12.30;51.60;;;;;;4946132;28;20195;-87
2022/04/04 09:54:03;;;;;;;5.22;4.63;;;12.50;51.20;;;;;;4959138;28;20211;-83
2022/04/04 09:56:29;;;;;;;6.53;5.55;;;11.60;50.20;;;;;;4988591;28;20203;-84
2022/04/04 09:58:58;;;;;;;6.03;4.80;;;10.90;50.30;;;;;;4988001;28;20223;-83
2022/04/04 10:01:24;;;;;;;5.97;4.60;;;9.90;53.70;;;;;;4966661;28;20200;-88
2022/04/04 10:03:52;;;;;;;5.20;4.70;;;9.50;56.30;;;;;;4944419;28;20260;-85
2022/04/04 10:06:18;;;;;;;6.75;5.20;;;10.40;53.90;;;;;;4975036;28;20230;-85
2022/04/04 10:08:51;;;;;;;4.60;4.20;;;9.70;53.40;;;;;;4940308;28;20888;-87
2022/04/04 10:11:20;;;;;;;9.35;4.88;;;9.10;53.80;;;;;;4962689;28;20176;-88
2022/04/04 10:13:47;;;;;;;7.25;4.80;;;9.70;58.40;;;;;;4949445;28;20194;-85
2022/04/04 10:16:14;;;;;;;7.18;5.65;;;9.90;56.50;;;;;;4958861;28;20176;-87
2022/04/04 10:18:43;;;;;;;7.22;5.57;;;8.80;55.00;;;;;;4938967;28;20220;-85
2022/04/04 10:21:10;;;;;;;5.80;4.72;;;8.20;58.90;;;;;;4940130;28;20188;-87
2022/04/04 10:23:39;;;;;;;5.32;4.82;;;7.90;58.50;;;;;;4962804;28;20203;-85
2022/04/04 10:26:07;;;;;;;7.93;5.05;;;7.70;60.90;;;;;;4965007;28;20168;-86
2022/04/04 10:28:34;;;;;;;6.78;5.32;;;8.00;66.30;;;;;;4963578;28;20206;-86
2022/04/04 10:31:16;;;;;;;6.35;5.10;;;7.80;63.30;;;;;;4963307;28;20196;-87
2022/04/04 10:33:44;;;;;;;7.30;6.60;;;8.10;62.90;;;;;;4945145;28;21037;-88
2022/04/04 10:36:16;;;;;;;8.60;6.07;;;7.20;61.10;;;;;;4963398;28;20187;-84
2022/04/04 10:38:47;;;;;;;6.47;4.60;;;7.20;62.70;;;;;;4940682;28;20581;-87
2022/04/04 10:41:18;;;;;;;5.85;4.95;;;7.10;62.50;;;;;;4964317;28;20242;-85
2022/04/04 10:43:49;;;;;;;7.43;5.70;;;7.00;61.90;;;;;;4964788;28;20179;-83
2022/04/04 10:46:17;;;;;;;7.55;4.60;;;7.60;70.20;;;;;;4963287;28;20180;-85
2022/04/04 10:48:48;;;;;;;5.70;4.55;;;7.60;64.20;;;;;;4949000;28;20207;-86
2022/04/04 10:51:20;;;;;;;7.63;5.25;;;7.30;63.00;;;;;;4953099;28;20211;-85
2022/04/04 10:53:54;;;;;;;7.03;5.00;;;7.50;64.80;;;;;;4953793;28;20285;-85
2022/04/04 10:56:41;;;;;;;6.78;4.80;;;7.20;63.80;;;;;;4994048;28;20243;-82
2022/04/04 10:59:16;;;;;;;7.93;5.47;;;7.90;66.70;;;;;;4949406;28;20303;-85
2022/04/04 11:01:43;;;;;;;6.50;5.80;;;8.20;62.80;;;;;;4951935;28;20264;-88
2022/04/04 11:04:27;;;;;;;8.77;5.32;;;8.20;64.50;;;;;;4964986;28;20203;-86
2022/04/04 11:10:06;;;;;;;5.28;4.75;;;7.60;63.00;;;;;;4966545;28;20178;-82
2022/04/04 11:13:02;;;;;;;6.30;5.22;;;7.10;65.20;;;;;;4953569;28;20219;-84
2022/04/04 11:15:53;;;;;;;5.13;4.63;;;6.60;67.60;;;;;;4947249;28;20198;-84
2022/04/04 11:18:19;;;;;;;7.57;5.57;;;7.00;70.40;;;;;;4960155;28;20212;-86
2022/04/04 11:20:59;;;;;;;6.40;5.50;;;7.60;68.30;;;;;;4949452;28;20184;-86
2022/04/04 11:23:34;;;;;;;6.40;4.00;;;7.40;64.90;;;;;;4963350;28;20188;-86
2022/04/04 11:26:04;;;;;;;8.43;4.30;;;7.50;67.50;;;;;;4962964;28;20187;-85
2022/04/04 11:28:35;;;;;;;7.43;4.13;;;7.50;64.50;;;;;;4958152;28;20204;-83
2022/04/04 11:31:08;;;;;;;7.43;6.10;;;7.70;65.80;;;;;;4963419;28;20207;-86
2022/04/04 11:33:54;;;;;;;6.82;5.78;;;7.80;64.00;;;;;;4960817;28;20634;-84
2022/04/04 11:36:23;;;;;;;8.88;5.25;;;8.00;66.70;;;;;;4979453;28;20247;-85
2022/04/04 11:38:51;;;;;;;5.35;3.80;;;8.30;67.20;;;;;;4963109;28;20274;-87
2022/04/04 11:41:19;;;;;;;7.40;5.60;;;7.30;62.20;;;;;;4943129;28;20203;-86
2022/04/04 11:43:50;;;;;;;11.00;5.13;;;7.70;68.80;;;;;;4957389;28;20969;-85
2022/04/04 11:46:19;;;;;;;6.18;4.47;;;8.30;67.60;;;;;;4981602;28;20176;-86
2022/04/04 11:48:56;;;;;;;7.78;5.47;;;8.40;64.00;;;;;;4961421;28;20214;-87
2022/04/04 11:51:25;;;;;;;7.25;6.20;;;8.50;65.80;;;;;;4963078;28;20187;-86
2022/04/04 11:54:03;;;;;;;6.97;5.90;;;7.70;63.00;;;;;;4964947;28;20184;-86
2022/04/04 11:56:29;;;;;;;8.30;5.13;;;7.30;64.90;;;;;;4964154;28;20176;-86
2022/04/04 11:58:55;;;;;;;7.27;5.77;;;7.40;65.80;;;;;;4950824;28;20227;-85
2022/04/04 12:01:27;;;;;;;7.40;6.60;;;7.40;64.80;;;;;;4935500;29;20187;-86
2022/04/04 12:03:53;;;;;;;6.13;5.18;;;7.80;68.40;;;;;;4918693;29;20184;-84
2022/04/04 12:06:20;;;;;;;6.57;5.10;;;8.30;67.50;;;;;;4943580;28;20184;-87
2022/04/04 12:08:46;;;;;;;6.40;4.90;;;8.20;68.40;;;;;;4940776;28;20996;-84
2022/04/04 12:11:13;;;;;;;6.40;5.63;;;8.40;63.00;;;;;;4924661;28;20188;-81
2022/04/04 12:13:52;;;;;;;11.13;6.80;;;8.20;66.10;;;;;;4942736;28;20184;-82
2022/04/04 12:16:17;;;;;;;5.72;5.18;;;8.40;68.90;;;;;;4934402;28;20191;-83
2022/04/04 12:18:51;;;;;;;7.10;5.37;;;8.20;65.80;;;;;;4924240;28;20508;-88
2022/04/04 12:21:18;;;;;;;5.35;4.85;;;7.80;68.60;;;;;;4941595;28;20236;-84
2022/04/04 12:26:28;;;;;;;8.32;6.35;;;8.00;70.00;;;;;;4940969;28;20191;-86
2022/04/04 12:28:54;;;;;;;5.93;5.33;;;8.20;67.80;;;;;;4942747;28;20200;-86
2022/04/04 12:31:21;;;;;;;4.90;4.43;;;7.90;66.10;;;;;;4945747;28;20191;-87
2022/04/04 12:33:55;;;;;;;7.38;6.68;;;7.70;69.20;;;;;;4926789;28;20204;-86
2022/04/04 12:36:40;;;;;;;6.85;5.85;;;7.80;71.30;;;;;;4928809;29;20279;-86
2022/04/04 12:39:18;;;;;;;7.18;6.00;;;8.00;71.00;;;;;;4929861;28;20216;-83
2022/04/04 12:41:53;;;;;;;8.55;6.25;;;7.90;71.20;;;;;;4932334;28;20200;-86
2022/04/04 12:44:21;;;;;;;8.77;6.35;;;8.00;66.50;;;;;;4941345;28;20198;-84
2022/04/04 12:46:47;;;;;;;7.90;5.65;;;8.50;69.40;;;;;;4939799;28;20240;-85
2022/04/04 12:49:17;;;;;;;9.10;6.32;;;8.40;68.90;;;;;;4937725;28;20187;-86
2022/04/04 12:51:59;;;;;;;7.68;5.57;;;7.90;67.70;;;;;;4951753;28;20192;-84
2022/04/04 12:54:31;;;;;;;6.55;5.93;;;8.00;70.80;;;;;;4961795;28;20173;-84
2022/04/04 12:56:58;;;;;;;6.80;6.07;;;7.50;69.10;;;;;;4941931;28;20209;-85
2022/04/04 12:59:26;;;;;;;10.23;6.40;;;7.90;73.50;;;;;;4955508;28;20271;-86